Aviationluver (Closed) Tower and Ground at KTUL on Training Server

Greetings forum aficionado,
My exams are finally over and I am excited to start doing regular person stuff again. I will be opening KTUL (Tulsa Int’l Airport) for a while.

If possible, I would appreciate a good mix of aircraft to really challenge me. Pattern work is accepted and encouraged.

Here are the charts.

METAR: KTUL 091853Z 00000KT 10SM CLR 32/14 A2988 RMK AO2 SLP109 T03220144

NOTAMS to pilots: RWY in use 36L. RWY 36R in use.

Cheers,
Aviationluver

4 Likes

Knowing the server would be nice

Check the Title of the thread my friend

1 Like

Didn’t see that, thanks.

ATC is now closed, thank you so much for attending!

My God … somebody is worse off than I am with GA? 😅

But evaluating the ATC, I liked it. Hopefully you can be an IFATC someday. 👏👏

Thank you so much for stopping by. It was a pleasure controlling for you :)

1 Like

Thnx for the good service at KTUL. The only thing I can add is once you give the direction of the traffic circuit, you do not have to repeat it when you “clear for the option”. For the rest I had a great time! Cheers! OO-LXV

1 Like

Thanks for the feedback, I will make sure to not make that same mistake. I really appreciated you staying for so long!

1 Like

This topic was automatically closed 90 days after the last reply. New replies are no longer allowed.